Aérodrome :
LOGIN :

S'inscrire | Disclaimer

   EN    FR    IT 

 










Légende :    VFR   VFR Marginal   IFR   IFR Intensif   IFR Très Intensif
Visi : 
Plafond : 
>= 8 km
>= 3000ft
5 à 8 km
1000 à 3000 ft
1500m à 5 km
500 à 1000 ft
800 à 1500m
200 à 500 ft
< 800m
< 200 ft
Symboles :   Orages  Brouillard  Fortes neiges  Fortes précipitations  Vent > 20 kt
SIGMETs :   Divers  Orages  Givrage  Turbulence  Onde Orograph.  Cendres Volcan.







- Altitude de l'aérodrome : 256 ft
- Code IATA : CFR
- Voir les cartes d'approche


LFRK - Caen

DERNIER METAR :
  • 172100Z AUTO 22005KT 4100 BR NSC 05/05 Q1027 BECMG BKN002

METARs EXPIRÉS :
  • 172030Z AUTO 21004KT 3900 BR FEW045 05/04 Q1027 BECMG BKN002
  • 172000Z AUTO 17003KT 3300 BR BKN046 06/06 Q1028 BECMG BKN002
  • 171930Z AUTO 11002KT 3900 BR BKN046 07/07 Q1028 BECMG BKN002
  • 171900Z AUTO 00000KT 4400 BR FEW032 BKN038 OVC046 07/07 Q1028 NOSIG
  • 171830Z AUTO 00000KT 5000 BR FEW030 BKN046 06/06 Q1028 NOSIG

TAF AMD TAF LFRK
Valide du 17 à 17h jusqu'au 18 à 00h UTC


171751Z 1717/1724 VRB03KT 5000 BR NSC
BECMG 1718/1721 3000 BR SCT002
BECMG 1721/1724 BKN002
Météo : +33 2 31 26 68 11
Pas de NOTAMs connus pour ce terrain.



MET'MAP, la Météo Aéronautique d'un coup d'oeil ! - Copyright ORBIFLY Décembre 2007 - Disclaimer

ORBIFLY MET'MAP TEAM :

Programmation & Développement : Alexandra Zaïnal
Conception & Développement : Baudouin d'Aumeries
Co-Programmation & Développement : Marc-Olivier Méhu
Soutien technique & logistique : Manuel Goepfert

Contact : metmap@orbifly.com




SOURCES & CREDITS :

   NOAA